Time;durP1;ratioP1;P1;durP2;ratioP2;P2;SDS_P1;SDS_P2;PMS_P1;PMS_P2;Temp;Humidity;BMP_temperature;BMP_pressure;BME280_temperature;BME280_humidity;BME280_pressure;Samples;Min_cycle;Max_cycle;Signal;HPM_P1;HPM_P2
2023/03/13 00:02:07;;;;;;;9.43;4.87;;;;;;;;;;4995536;28;20126;-87
2023/03/13 00:04:33;;;;;;;15.40;5.00;;;;;;;;;;4995177;28;20125;-84
2023/03/13 00:06:58;;;;;;;12.23;4.90;;;;;;;;;;4994415;28;20049;-86
2023/03/13 00:09:26;;;;;;;8.77;4.23;;;;;;;;;;4995206;28;20027;-84
2023/03/13 00:11:52;;;;;;;11.60;4.00;;;;;;;;;;4996822;28;20022;-86
2023/03/13 00:14:18;;;;;;;9.10;4.00;;;;;;;;;;4995876;28;20021;-86
2023/03/13 00:16:45;;;;;;;14.27;4.70;;;;;;;;;;4996562;28;20022;-87
2023/03/13 00:19:10;;;;;;;9.97;4.13;;;;;;;;;;4996239;28;20044;-86
2023/03/13 00:21:40;;;;;;;11.10;4.17;;;;;;;;;;4993872;28;20113;-86
2023/03/13 00:24:08;;;;;;;6.87;4.33;;;;;;;;;;4997941;28;20022;-86
2023/03/13 00:26:34;;;;;;;8.50;4.17;;;;;;;;;;4998879;28;20022;-84
2023/03/13 00:28:59;;;;;;;5.83;3.63;;;;;;;;;;4999292;28;20478;-86
2023/03/13 00:31:30;;;;;;;8.40;3.83;;;;;;;;;;5000891;28;20390;-86
2023/03/13 00:34:00;;;;;;;7.27;3.67;;;;;;;;;;4999996;28;20022;-84
2023/03/13 00:36:28;;;;;;;10.80;3.80;;;;;;;;;;4998620;28;20049;-87
2023/03/13 00:38:55;;;;;;;13.63;4.07;;;;;;;;;;4999740;28;20030;-86
2023/03/13 00:41:23;;;;;;;11.17;3.73;;;;;;;;;;4999917;28;20463;-86
2023/03/13 00:43:50;;;;;;;11.90;4.30;;;;;;;;;;5001964;28;20037;-84
2023/03/13 00:46:17;;;;;;;12.67;3.80;;;;;;;;;;4998815;28;20030;-85
2023/03/13 00:48:46;;;;;;;5.93;3.07;;;;;;;;;;4999615;28;20097;-86
2023/03/13 00:51:14;;;;;;;9.93;3.43;;;;;;;;;;5001119;28;20331;-88
2023/03/13 00:53:40;;;;;;;6.57;3.00;;;;;;;;;;4999339;28;20037;-85
2023/03/13 00:56:09;;;;;;;6.90;3.03;;;;;;;;;;4999988;28;20026;-85
2023/03/13 00:58:37;;;;;;;10.53;3.47;;;;;;;;;;5000425;28;20026;-87
2023/03/13 01:01:22;;;;;;;8.10;3.40;;;;;;;;;;4999260;28;20026;-87
2023/03/13 01:04:03;;;;;;;6.40;3.10;;;;;;;;;;4999232;28;20030;-87
2023/03/13 01:06:31;;;;;;;9.53;3.40;;;;;;;;;;4998505;28;20026;-87
2023/03/13 01:08:57;;;;;;;6.60;3.17;;;;;;;;;;4999350;28;20034;-87
2023/03/13 01:11:29;;;;;;;9.20;3.33;;;;;;;;;;5000390;28;20036;-86
2023/03/13 01:14:00;;;;;;;10.90;3.00;;;;;;;;;;5000020;28;20035;-85
2023/03/13 01:16:27;;;;;;;10.43;3.30;;;;;;;;;;4999464;28;20038;-87
2023/03/13 01:18:55;;;;;;;11.60;3.30;;;;;;;;;;4999248;28;20129;-87
2023/03/13 01:21:23;;;;;;;9.10;3.20;;;;;;;;;;4998673;28;20136;-86
2023/03/13 01:23:49;;;;;;;8.10;3.40;;;;;;;;;;4999323;28;20466;-86
2023/03/13 01:26:15;;;;;;;11.53;3.57;;;;;;;;;;4998771;28;20058;-85
2023/03/13 01:28:41;;;;;;;8.13;2.87;;;;;;;;;;4999142;28;20338;-86
2023/03/13 01:31:17;;;;;;;9.13;3.17;;;;;;;;;;4998159;28;20026;-86
2023/03/13 01:33:44;;;;;;;9.07;3.23;;;;;;;;;;4997779;28;20026;-86
2023/03/13 01:36:10;;;;;;;8.10;3.40;;;;;;;;;;4998045;28;20386;-83
2023/03/13 01:38:37;;;;;;;9.87;3.37;;;;;;;;;;4997135;28;20105;-82
2023/03/13 01:41:03;;;;;;;6.80;2.77;;;;;;;;;;4997126;28;20128;-86
2023/03/13 01:43:31;;;;;;;8.30;3.23;;;;;;;;;;4998041;28;20038;-88
2023/03/13 01:46:18;;;;;;;11.63;3.50;;;;;;;;;;4997874;28;20042;-87
2023/03/13 01:48:49;;;;;;;9.33;2.60;;;;;;;;;;4998494;28;20034;-87
2023/03/13 01:51:19;;;;;;;12.43;3.95;;;;;;;;;;4997564;28;20078;-87
2023/03/13 01:53:48;;;;;;;6.20;2.90;;;;;;;;;;4998779;28;20030;-87
2023/03/13 01:56:21;;;;;;;8.53;3.70;;;;;;;;;;4997690;28;20026;-87
2023/03/13 01:58:49;;;;;;;6.60;2.60;;;;;;;;;;4998090;28;20047;-87
2023/03/13 02:01:15;;;;;;;11.40;2.97;;;;;;;;;;4996888;28;20030;-87
2023/03/13 02:03:42;;;;;;;9.87;3.03;;;;;;;;;;4998601;28;20031;-82
2023/03/13 02:06:09;;;;;;;6.77;3.20;;;;;;;;;;4997573;28;20037;-85
2023/03/13 02:08:45;;;;;;;7.93;2.77;;;;;;;;;;5005104;28;20098;-86
2023/03/13 02:11:20;;;;;;;13.87;3.30;;;;;;;;;;5001699;28;20022;-87
2023/03/13 02:13:47;;;;;;;7.23;3.43;;;;;;;;;;5003491;28;20044;-87
2023/03/13 02:16:13;;;;;;;8.47;2.60;;;;;;;;;;5002705;28;20040;-87
2023/03/13 02:18:39;;;;;;;11.33;3.40;;;;;;;;;;5000597;28;20058;-81
2023/03/13 02:21:13;;;;;;;12.77;2.97;;;;;;;;;;4996676;28;20080;-87
2023/03/13 02:23:47;;;;;;;7.90;3.00;;;;;;;;;;4997999;28;20034;-84
2023/03/13 02:26:14;;;;;;;12.77;4.33;;;;;;;;;;4995200;28;20327;-86
2023/03/13 02:28:40;;;;;;;11.07;3.33;;;;;;;;;;4997614;28;20026;-86
2023/03/13 02:31:05;;;;;;;12.73;4.07;;;;;;;;;;4997357;28;20068;-86
2023/03/13 02:33:36;;;;;;;6.80;3.10;;;;;;;;;;4997115;28;20037;-86
2023/03/13 02:36:03;;;;;;;10.27;3.20;;;;;;;;;;4998496;28;20035;-85
2023/03/13 02:38:33;;;;;;;7.47;3.23;;;;;;;;;;4997483;28;20275;-86
2023/03/13 02:41:01;;;;;;;8.90;2.60;;;;;;;;;;5018172;28;20058;-84
2023/03/13 02:43:31;;;;;;;12.63;3.67;;;;;;;;;;5017497;28;20080;-86
2023/03/13 02:46:13;;;;;;;13.67;4.10;;;;;;;;;;5016277;28;20493;-86
2023/03/13 02:48:44;;;;;;;10.85;3.53;;;;;;;;;;5016411;28;20026;-87
2023/03/13 02:51:24;;;;;;;10.50;3.17;;;;;;;;;;5015839;28;20072;-86
2023/03/13 02:53:52;;;;;;;10.50;2.83;;;;;;;;;;5016694;28;20033;-84
2023/03/13 02:56:21;;;;;;;11.70;3.17;;;;;;;;;;5016072;28;20040;-86
2023/03/13 02:58:47;;;;;;;8.90;3.20;;;;;;;;;;5017915;28;20481;-87
2023/03/13 03:01:12;;;;;;;14.13;3.40;;;;;;;;;;5015938;28;20072;-86
2023/03/13 03:03:38;;;;;;;8.53;3.10;;;;;;;;;;5015133;28;20126;-87
2023/03/13 03:06:05;;;;;;;9.90;3.10;;;;;;;;;;5014937;28;20038;-87
2023/03/13 03:08:31;;;;;;;14.93;3.27;;;;;;;;;;5017482;28;20034;-85
2023/03/13 03:10:57;;;;;;;12.50;2.80;;;;;;;;;;5016025;28;20148;-86
2023/03/13 03:13:22;;;;;;;7.40;2.67;;;;;;;;;;5016081;28;20030;-84
2023/03/13 03:15:48;;;;;;;8.90;3.00;;;;;;;;;;5015966;28;20045;-86
2023/03/13 03:18:13;;;;;;;7.77;4.00;;;;;;;;;;5017521;28;20096;-87
2023/03/13 03:20:39;;;;;;;6.97;2.90;;;;;;;;;;5016547;28;20026;-85
2023/03/13 03:23:04;;;;;;;6.30;2.60;;;;;;;;;;5017272;28;20026;-87
2023/03/13 03:25:30;;;;;;;13.37;3.70;;;;;;;;;;5016051;28;20030;-86
2023/03/13 03:27:55;;;;;;;10.23;3.60;;;;;;;;;;5016903;28;20074;-87
2023/03/13 03:30:21;;;;;;;9.10;3.23;;;;;;;;;;5015808;28;20057;-87
2023/03/13 03:32:46;;;;;;;9.13;2.40;;;;;;;;;;5016246;28;20438;-86
2023/03/13 03:35:12;;;;;;;8.73;3.10;;;;;;;;;;5017277;28;20144;-86
2023/03/13 03:37:37;;;;;;;9.60;2.87;;;;;;;;;;5015520;28;20022;-85
2023/03/13 03:40:06;;;;;;;12.47;3.57;;;;;;;;;;5015245;28;20070;-87
2023/03/13 03:42:32;;;;;;;9.57;3.00;;;;;;;;;;5016921;28;20034;-87
2023/03/13 03:44:58;;;;;;;14.43;3.00;;;;;;;;;;5014976;28;20029;-87
2023/03/13 03:47:24;;;;;;;6.37;2.33;;;;;;;;;;5016674;28;20034;-86
2023/03/13 03:49:49;;;;;;;9.13;2.77;;;;;;;;;;4999427;28;20442;-88
2023/03/13 03:52:15;;;;;;;10.20;3.17;;;;;;;;;;5016255;28;20121;-81
2023/03/13 03:54:40;;;;;;;7.53;2.50;;;;;;;;;;5014746;28;20056;-82
2023/03/13 03:57:06;;;;;;;6.43;2.60;;;;;;;;;;5014816;28;20502;-83
2023/03/13 03:59:31;;;;;;;8.37;2.83;;;;;;;;;;5019018;28;20013;-86
2023/03/13 04:01:57;;;;;;;9.87;2.73;;;;;;;;;;5019664;28;20097;-86
2023/03/13 04:04:22;;;;;;;10.93;2.70;;;;;;;;;;5018782;28;20500;-86
2023/03/13 04:06:48;;;;;;;9.27;2.57;;;;;;;;;;5020011;28;20030;-86
2023/03/13 04:09:14;;;;;;;9.93;3.10;;;;;;;;;;5017874;28;20030;-86
2023/03/13 04:11:40;;;;;;;11.67;3.30;;;;;;;;;;5018812;28;20030;-86
2023/03/13 04:14:05;;;;;;;10.67;3.63;;;;;;;;;;5019361;28;20370;-86
2023/03/13 04:16:31;;;;;;;6.83;2.80;;;;;;;;;;5018552;28;20034;-85
2023/03/13 04:18:56;;;;;;;12.13;3.87;;;;;;;;;;5019556;28;20030;-86
2023/03/13 04:21:22;;;;;;;10.97;2.93;;;;;;;;;;5019753;28;20017;-85
2023/03/13 04:23:47;;;;;;;6.83;2.60;;;;;;;;;;5019279;28;20042;-87
2023/03/13 04:26:13;;;;;;;7.40;2.90;;;;;;;;;;5017943;28;20053;-87
2023/03/13 04:28:38;;;;;;;9.63;3.30;;;;;;;;;;5020079;28;20081;-87
2023/03/13 04:31:04;;;;;;;8.10;2.60;;;;;;;;;;5018844;28;20132;-87
2023/03/13 04:33:29;;;;;;;7.43;2.10;;;;;;;;;;5019854;28;20048;-87
2023/03/13 04:35:55;;;;;;;11.93;3.00;;;;;;;;;;5021897;28;20167;-87
2023/03/13 04:38:20;;;;;;;13.37;3.17;;;;;;;;;;5019906;28;20370;-87
2023/03/13 04:40:47;;;;;;;18.83;3.80;;;;;;;;;;5016933;28;20086;-88
2023/03/13 04:43:12;;;;;;;14.80;3.77;;;;;;;;;;5001226;28;20034;-86
2023/03/13 04:45:38;;;;;;;16.67;3.80;;;;;;;;;;5001072;28;20032;-87
2023/03/13 04:48:04;;;;;;;10.03;3.00;;;;;;;;;;5000486;28;20368;-86
2023/03/13 04:50:29;;;;;;;13.13;2.90;;;;;;;;;;4999671;28;20496;-84
2023/03/13 04:52:55;;;;;;;9.80;3.60;;;;;;;;;;4998849;28;20109;-87
2023/03/13 04:55:20;;;;;;;11.80;3.53;;;;;;;;;;5000698;28;20410;-85
2023/03/13 04:57:45;;;;;;;11.33;3.00;;;;;;;;;;5020089;28;20030;-87
2023/03/13 05:00:11;;;;;;;10.37;3.07;;;;;;;;;;5018524;28;20144;-87
2023/03/13 05:02:37;;;;;;;12.23;3.33;;;;;;;;;;5019350;28;20398;-87
2023/03/13 05:05:03;;;;;;;10.47;2.73;;;;;;;;;;5018175;28;20087;-86
2023/03/13 05:07:28;;;;;;;7.47;2.87;;;;;;;;;;5018375;28;20145;-87
2023/03/13 05:09:54;;;;;;;11.27;3.20;;;;;;;;;;5019161;28;20413;-84
2023/03/13 05:12:19;;;;;;;8.57;3.17;;;;;;;;;;5019219;28;20020;-86
2023/03/13 05:14:45;;;;;;;4.57;2.50;;;;;;;;;;5018820;28;20029;-87
2023/03/13 05:17:11;;;;;;;10.53;3.30;;;;;;;;;;5018435;28;20040;-83
2023/03/13 05:19:37;;;;;;;10.13;2.77;;;;;;;;;;5019432;28;20021;-87
2023/03/13 05:22:03;;;;;;;9.07;2.63;;;;;;;;;;5018597;28;20164;-86
2023/03/13 05:24:28;;;;;;;10.30;4.73;;;;;;;;;;5019799;28;20437;-83
2023/03/13 05:26:54;;;;;;;8.93;3.50;;;;;;;;;;5018302;28;20068;-85
2023/03/13 05:29:19;;;;;;;13.37;3.37;;;;;;;;;;5017739;28;20472;-85
2023/03/13 05:31:45;;;;;;;13.10;2.87;;;;;;;;;;5019334;28;20014;-85
2023/03/13 05:34:11;;;;;;;9.97;3.73;;;;;;;;;;5016887;28;20018;-85
2023/03/13 05:36:36;;;;;;;6.43;3.23;;;;;;;;;;5017300;28;20030;-86
2023/03/13 05:39:02;;;;;;;7.40;2.50;;;;;;;;;;5010426;28;20030;-89
2023/03/13 05:41:27;;;;;;;10.47;2.43;;;;;;;;;;4998833;28;20058;-87
2023/03/13 05:43:53;;;;;;;9.20;2.70;;;;;;;;;;5010029;28;20046;-87
2023/03/13 05:46:18;;;;;;;7.50;2.53;;;;;;;;;;5017565;28;20030;-85
2023/03/13 05:48:44;;;;;;;11.83;3.23;;;;;;;;;;5013164;28;20038;-85
2023/03/13 05:51:10;;;;;;;9.17;2.87;;;;;;;;;;5010130;28;20097;-87
2023/03/13 05:53:35;;;;;;;15.00;2.50;;;;;;;;;;5015217;28;20034;-85
2023/03/13 05:56:01;;;;;;;14.97;4.47;;;;;;;;;;5015811;28;20023;-88
2023/03/13 05:58:26;;;;;;;14.50;2.47;;;;;;;;;;5011442;28;20026;-84
2023/03/13 06:00:52;;;;;;;12.40;2.70;;;;;;;;;;5017159;28;20021;-86
2023/03/13 06:03:17;;;;;;;9.53;2.53;;;;;;;;;;5016119;28;20033;-85
2023/03/13 06:05:43;;;;;;;14.87;3.13;;;;;;;;;;5020541;28;20034;-87
2023/03/13 06:08:09;;;;;;;7.37;2.20;;;;;;;;;;5019619;28;20025;-85
2023/03/13 06:10:35;;;;;;;8.40;2.93;;;;;;;;;;5012970;28;20040;-85
2023/03/13 06:13:00;;;;;;;8.97;2.90;;;;;;;;;;5012868;28;20072;-85
2023/03/13 06:15:26;;;;;;;7.00;2.20;;;;;;;;;;5013028;28;20045;-84
2023/03/13 06:17:51;;;;;;;11.43;2.90;;;;;;;;;;5030808;28;20025;-84
2023/03/13 06:20:17;;;;;;;9.53;2.20;;;;;;;;;;5007029;28;20022;-85
2023/03/13 06:22:43;;;;;;;5.47;2.00;;;;;;;;;;5006484;28;20021;-85
2023/03/13 06:25:09;;;;;;;12.10;2.67;;;;;;;;;;5006200;28;20494;-87
2023/03/13 06:27:35;;;;;;;10.63;2.30;;;;;;;;;;5014334;28;20045;-83
2023/03/13 06:30:00;;;;;;;7.63;2.33;;;;;;;;;;5019826;28;20034;-86
2023/03/13 06:32:27;;;;;;;7.70;2.33;;;;;;;;;;5015613;28;20033;-85
2023/03/13 06:34:52;;;;;;;9.03;2.13;;;;;;;;;;5013400;28;20025;-85
2023/03/13 06:37:19;;;;;;;4.57;2.07;;;;;;;;;;5021787;28;20034;-86
2023/03/13 06:39:44;;;;;;;11.77;2.27;;;;;;;;;;5008446;28;20715;-86
2023/03/13 06:42:10;;;;;;;14.73;3.43;;;;;;;;;;5013875;28;20173;-85
2023/03/13 06:44:36;;;;;;;12.53;3.23;;;;;;;;;;5016179;28;20033;-85
2023/03/13 06:47:01;;;;;;;8.67;2.17;;;;;;;;;;5013422;28;20022;-87
2023/03/13 06:49:27;;;;;;;10.07;2.58;;;;;;;;;;5015309;28;20510;-85
2023/03/13 06:51:57;;;;;;;11.10;2.78;;;;;;;;;;5013380;28;20156;-88
2023/03/13 06:54:22;;;;;;;8.87;2.10;;;;;;;;;;5012732;28;20030;-85
2023/03/13 06:56:48;;;;;;;13.37;3.10;;;;;;;;;;5026688;28;20094;-85
2023/03/13 06:59:13;;;;;;;9.63;2.47;;;;;;;;;;5015083;28;20038;-85
2023/03/13 07:01:39;;;;;;;7.85;1.98;;;;;;;;;;5015545;28;20034;-86
2023/03/13 07:04:04;;;;;;;11.20;2.77;;;;;;;;;;5010887;28;20095;-84
2023/03/13 07:06:30;;;;;;;7.80;2.43;;;;;;;;;;5016976;28;20037;-85
2023/03/13 07:08:57;;;;;;;12.20;2.53;;;;;;;;;;5009592;28;20809;-84
2023/03/13 07:11:23;;;;;;;11.82;1.90;;;;;;;;;;5013533;28;20034;-84
2023/03/13 07:13:49;;;;;;;11.52;2.55;;;;;;;;;;5013373;28;20546;-84
2023/03/13 07:16:15;;;;;;;13.43;2.10;;;;;;;;;;5013569;28;20049;-84
2023/03/13 07:18:41;;;;;;;10.15;2.40;;;;;;;;;;5010909;28;20085;-84
2023/03/13 07:21:08;;;;;;;6.88;2.10;;;;;;;;;;5012787;28;20029;-84
2023/03/13 07:23:34;;;;;;;5.00;1.88;;;;;;;;;;5010887;28;20363;-84
2023/03/13 07:26:05;;;;;;;7.57;1.73;;;;;;;;;;5004585;28;20030;-86
2023/03/13 07:28:31;;;;;;;14.57;2.83;;;;;;;;;;5008698;28;20108;-81
2023/03/13 07:31:18;;;;;;;7.60;2.00;;;;;;;;;;5017283;28;20079;-86
2023/03/13 07:33:44;;;;;;;10.57;2.55;;;;;;;;;;5014606;28;20037;-84
2023/03/13 07:36:10;;;;;;;10.32;1.95;;;;;;;;;;5018925;28;20018;-84
2023/03/13 07:38:37;;;;;;;7.85;2.72;;;;;;;;;;5021148;28;20519;-84
2023/03/13 07:41:03;;;;;;;8.93;2.10;;;;;;;;;;5023204;28;20038;-86
2023/03/13 07:43:30;;;;;;;8.23;2.20;;;;;;;;;;5021727;28;20089;-87
2023/03/13 07:45:56;;;;;;;12.48;3.42;;;;;;;;;;5022736;28;20069;-86
2023/03/13 07:48:24;;;;;;;8.55;2.00;;;;;;;;;;5019611;28;20133;-86
2023/03/13 07:50:50;;;;;;;5.55;1.88;;;;;;;;;;5001471;28;20021;-82
2023/03/13 07:53:19;;;;;;;7.38;1.90;;;;;;;;;;5012518;28;20022;-81
2023/03/13 07:55:56;;;;;;;10.27;2.15;;;;;;;;;;5019322;28;20045;-85
2023/03/13 07:58:23;;;;;;;6.28;2.28;;;;;;;;;;5013345;28;20470;-85
2023/03/13 08:00:48;;;;;;;5.35;1.90;;;;;;;;;;5002215;28;20045;-85
2023/03/13 08:03:14;;;;;;;9.43;2.75;;;;;;;;;;5014347;28;20033;-86
2023/03/13 08:05:40;;;;;;;6.20;1.98;;;;;;;;;;5014416;28;20104;-85
2023/03/13 08:08:07;;;;;;;3.47;2.13;;;;;;;;;;5006320;28;20022;-82
2023/03/13 08:10:34;;;;;;;6.80;1.98;;;;;;;;;;5008460;28;20108;-80
2023/03/13 08:13:00;;;;;;;8.13;2.08;;;;;;;;;;5008633;28;20096;-86
2023/03/13 08:15:27;;;;;;;2.97;1.55;;;;;;;;;;5008109;28;20029;-86
2023/03/13 08:17:54;;;;;;;7.88;2.00;;;;;;;;;;5011600;28;20029;-88
2023/03/13 08:20:19;;;;;;;4.35;2.22;;;;;;;;;;5012307;28;20017;-85
2023/03/13 08:22:45;;;;;;;10.25;2.92;;;;;;;;;;5013002;28;20119;-85
2023/03/13 08:25:14;;;;;;;9.05;2.15;;;;;;;;;;5011851;28;20038;-83
2023/03/13 08:27:40;;;;;;;7.75;2.10;;;;;;;;;;5012566;28;20052;-82
2023/03/13 08:30:07;;;;;;;5.32;2.42;;;;;;;;;;5011776;28;20022;-87
2023/03/13 08:32:34;;;;;;;7.38;2.35;;;;;;;;;;5013738;28;20437;-84
2023/03/13 08:35:03;;;;;;;4.65;2.08;;;;;;;;;;5017940;28;20112;-85
2023/03/13 08:37:28;;;;;;;14.50;2.70;;;;;;;;;;5016316;28;20084;-87
2023/03/13 08:39:58;;;;;;;6.47;2.33;;;;;;;;;;5014304;28;20037;-85
2023/03/13 08:42:24;;;;;;;8.20;3.17;;;;;;;;;;5012636;28;20041;-85
2023/03/13 08:44:52;;;;;;;8.73;2.50;;;;;;;;;;5023521;28;20041;-85
2023/03/13 08:47:18;;;;;;;13.25;3.50;;;;;;;;;;5012031;28;20030;-86
2023/03/13 08:49:44;;;;;;;9.20;2.40;;;;;;;;;;5027595;28;20045;-87
2023/03/13 08:52:13;;;;;;;7.00;2.22;;;;;;;;;;5015318;28;20033;-88
2023/03/13 08:54:39;;;;;;;9.50;2.33;;;;;;;;;;5014707;28;20088;-85
2023/03/13 08:57:05;;;;;;;5.75;1.95;;;;;;;;;;5015203;28;20026;-87
2023/03/13 08:59:31;;;;;;;8.18;3.17;;;;;;;;;;5012448;28;20068;-84
2023/03/13 09:01:57;;;;;;;10.80;2.53;;;;;;;;;;5014544;28;20026;-86
2023/03/13 09:04:23;;;;;;;15.80;2.28;;;;;;;;;;5007434;28;20032;-85
2023/03/13 09:06:49;;;;;;;11.52;2.05;;;;;;;;;;5014221;28;20113;-82
2023/03/13 09:09:15;;;;;;;6.00;1.85;;;;;;;;;;5009224;28;20441;-81
2023/03/13 09:11:41;;;;;;;5.75;1.85;;;;;;;;;;5010195;28;20610;-80
2023/03/13 09:14:09;;;;;;;5.13;2.00;;;;;;;;;;5009360;28;20026;-83
2023/03/13 09:16:35;;;;;;;5.47;1.75;;;;;;;;;;5012213;28;20076;-86
2023/03/13 09:19:01;;;;;;;7.90;1.60;;;;;;;;;;5011381;28;20030;-84
2023/03/13 09:21:32;;;;;;;7.13;2.15;;;;;;;;;;5006658;28;20365;-83
2023/03/13 09:23:59;;;;;;;10.10;2.90;;;;;;;;;;5005043;28;20026;-83
2023/03/13 09:26:27;;;;;;;4.70;1.67;;;;;;;;;;5007256;28;20037;-83
2023/03/13 09:28:53;;;;;;;6.80;1.60;;;;;;;;;;5010994;28;20788;-82
2023/03/13 09:31:22;;;;;;;7.07;2.20;;;;;;;;;;5006751;28;20406;-87
2023/03/13 09:33:49;;;;;;;7.45;1.52;;;;;;;;;;5019207;28;20037;-85
2023/03/13 09:36:16;;;;;;;4.63;2.15;;;;;;;;;;5017356;28;20057;-83
2023/03/13 09:38:42;;;;;;;8.95;2.65;;;;;;;;;;5005718;28;20041;-85
2023/03/13 09:41:25;;;;;;;6.13;1.65;;;;;;;;;;5003767;28;20058;-83
2023/03/13 09:43:57;;;;;;;6.10;2.00;;;;;;;;;;5005275;28;20033;-84
2023/03/13 09:46:26;;;;;;;6.28;2.05;;;;;;;;;;5006852;28;20497;-85
2023/03/13 09:48:58;;;;;;;6.45;1.55;;;;;;;;;;5002653;28;20034;-85
2023/03/13 09:51:31;;;;;;;4.50;1.25;;;;;;;;;;5009791;28;20616;-82
2023/03/13 09:54:45;;;;;;;8.82;1.58;;;;;;;;;;5015009;28;20018;-83
2023/03/13 09:57:24;;;;;;;10.93;2.28;;;;;;;;;;5003629;28;20050;-84
2023/03/13 10:00:17;;;;;;;7.70;1.60;;;;;;;;;;5000535;28;20552;-85
2023/03/13 10:02:46;;;;;;;7.80;2.08;;;;;;;;;;5005615;28;20037;-82
2023/03/13 10:05:23;;;;;;;7.20;2.10;;;;;;;;;;5003256;28;20421;-84
2023/03/13 10:07:49;;;;;;;10.02;2.33;;;;;;;;;;5002601;28;20517;-82
2023/03/13 10:10:20;;;;;;;22.77;3.22;;;;;;;;;;5008798;28;20113;-83
2023/03/13 10:12:55;;;;;;;6.85;1.88;;;;;;;;;;5006429;28;20034;-83
2023/03/13 10:15:31;;;;;;;5.30;1.83;;;;;;;;;;5006782;28;20048;-85
2023/03/13 10:18:01;;;;;;;10.48;2.42;;;;;;;;;;5007155;28;20033;-82
2023/03/13 10:20:35;;;;;;;5.30;2.00;;;;;;;;;;4999058;28;20042;-79
2023/03/13 10:23:33;;;;;;;13.43;2.75;;;;;;;;;;5001844;28;20048;-83
2023/03/13 10:25:59;;;;;;;7.05;1.88;;;;;;;;;;5003651;28;20038;-82
2023/03/13 10:28:25;;;;;;;6.03;2.65;;;;;;;;;;5008642;28;20056;-85
2023/03/13 10:31:05;;;;;;;4.85;1.70;;;;;;;;;;5008664;28;20042;-86
2023/03/13 10:33:33;;;;;;;10.75;2.35;;;;;;;;;;5010282;28;20493;-86
2023/03/13 10:36:11;;;;;;;8.50;2.15;;;;;;;;;;5013755;28;20076;-81
2023/03/13 10:38:53;;;;;;;14.32;2.92;;;;;;;;;;5008013;28;20022;-83
2023/03/13 10:41:38;;;;;;;9.82;2.20;;;;;;;;;;5013002;28;20175;-83
2023/03/13 10:44:07;;;;;;;4.82;1.63;;;;;;;;;;5028230;28;20520;-83
2023/03/13 10:46:39;;;;;;;12.02;1.80;;;;;;;;;;5007933;28;20127;-86
2023/03/13 10:49:31;;;;;;;5.43;1.42;;;;;;;;;;5009386;28;20049;-82
2023/03/13 10:52:03;;;;;;;12.30;2.15;;;;;;;;;;5007026;28;20111;-81
2023/03/13 10:54:30;;;;;;;4.55;2.15;;;;;;;;;;5001434;28;20277;-80
2023/03/13 10:57:25;;;;;;;3.78;1.30;;;;;;;;;;5009731;28;20036;-81
2023/03/13 10:59:52;;;;;;;2.65;1.13;;;;;;;;;;5015930;28;20041;-84
2023/03/13 11:02:34;;;;;;;2.55;1.42;;;;;;;;;;5010268;28;20413;-85
2023/03/13 11:05:02;;;;;;;0.93;0.77;;;;;;;;;;5028860;28;20127;-85
2023/03/13 11:07:48;;;;;;;2.83;1.00;;;;;;;;;;5010953;28;20041;-82
2023/03/13 11:10:24;;;;;;;5.22;1.42;;;;;;;;;;5007136;28;20025;-84
2023/03/13 11:12:53;;;;;;;7.22;1.02;;;;;;;;;;5014956;28;20414;-83
2023/03/13 11:15:34;;;;;;;3.55;1.02;;;;;;;;;;5014963;28;20045;-86
2023/03/13 11:18:31;;;;;;;1.65;0.73;;;;;;;;;;5008637;28;20033;-83
2023/03/13 11:20:58;;;;;;;2.92;2.05;;;;;;;;;;5019658;28;20406;-85
2023/03/13 11:23:30;;;;;;;3.10;1.20;;;;;;;;;;5014865;28;20080;-84
2023/03/13 11:26:05;;;;;;;2.88;0.73;;;;;;;;;;5017925;28;20072;-81
2023/03/13 11:29:01;;;;;;;2.50;0.63;;;;;;;;;;5009547;28;20026;-80
2023/03/13 11:31:34;;;;;;;1.50;1.02;;;;;;;;;;5010324;28;20030;-81
2023/03/13 11:34:25;;;;;;;2.15;0.90;;;;;;;;;;5014757;28;20033;-84
2023/03/13 11:37:14;;;;;;;1.13;0.70;;;;;;;;;;5011801;28;20564;-83
2023/03/13 11:40:00;;;;;;;3.75;0.95;;;;;;;;;;5007548;28;20044;-82
2023/03/13 11:42:31;;;;;;;5.97;0.90;;;;;;;;;;5010445;28;20077;-81
2023/03/13 11:45:49;;;;;;;4.78;1.20;;;;;;;;;;5003247;28;20073;-80
2023/03/13 11:48:33;;;;;;;9.40;1.05;;;;;;;;;;4991463;28;20106;-83
2023/03/13 11:51:32;;;;;;;4.25;0.90;;;;;;;;;;4999891;28;20030;-80
2023/03/13 11:54:35;;;;;;;1.55;0.65;;;;;;;;;;5006827;28;20088;-85
2023/03/13 11:57:20;;;;;;;3.97;0.63;;;;;;;;;;5003539;28;20246;-80
2023/03/13 12:00:13;;;;;;;1.27;0.90;;;;;;;;;;4999425;28;20032;-84
2023/03/13 12:02:50;;;;;;;1.38;1.00;;;;;;;;;;5002089;28;20019;-83
2023/03/13 12:05:32;;;;;;;2.75;0.80;;;;;;;;;;5001260;28;20030;-83
2023/03/13 12:08:24;;;;;;;;;;;;;;;;;;;;;
2023/03/13 12:11:09;;;;;;;1.80;0.73;;;;;;;;;;5004409;28;20026;-84
2023/03/13 12:13:40;;;;;;;3.78;0.60;;;;;;;;;;5009885;28;20584;-81
2023/03/13 12:16:14;;;;;;;1.95;1.23;;;;;;;;;;5011638;28;20076;-84
2023/03/13 12:18:42;;;;;;;1.23;1.08;;;;;;;;;;5005806;28;20026;-80
2023/03/13 12:21:29;;;;;;;4.13;1.02;;;;;;;;;;5006469;28;20026;-83
2023/03/13 12:24:24;;;;;;;1.20;1.10;;;;;;;;;;5010800;28;20022;-83
2023/03/13 12:27:02;;;;;;;1.58;0.75;;;;;;;;;;5012477;28;20561;-82
2023/03/13 12:29:32;;;;;;;6.40;1.05;;;;;;;;;;5013688;28;20037;-83
2023/03/13 12:32:32;;;;;;;5.45;1.30;;;;;;;;;;5013776;28;20648;-85
2023/03/13 12:35:22;;;;;;;7.68;0.98;;;;;;;;;;5011220;28;20433;-86
2023/03/13 12:38:16;;;;;;;3.08;1.75;;;;;;;;;;5008338;28;20033;-85
2023/03/13 12:41:23;;;;;;;3.60;1.08;;;;;;;;;;5008048;28;20092;-80
2023/03/13 12:43:51;;;;;;;4.43;0.95;;;;;;;;;;4997484;28;20526;-85
2023/03/13 12:46:33;;;;;;;2.95;1.00;;;;;;;;;;5010946;28;20065;-85
2023/03/13 12:49:39;;;;;;;4.60;1.23;;;;;;;;;;5013524;28;20061;-83
2023/03/13 12:52:56;;;;;;;7.63;1.63;;;;;;;;;;5010031;28;20034;-87
2023/03/13 12:55:34;;;;;;;5.45;1.25;;;;;;;;;;5018331;28;20052;-87
2023/03/13 12:58:09;;;;;;;1.05;0.80;;;;;;;;;;5020238;28;20041;-85
2023/03/13 13:00:39;;;;;;;1.65;1.00;;;;;;;;;;5026042;28;20041;-86
2023/03/13 13:03:30;;;;;;;3.40;1.08;;;;;;;;;;5016322;28;20029;-87
2023/03/13 13:06:23;;;;;;;1.20;0.80;;;;;;;;;;5027801;28;20049;-86
2023/03/13 13:09:29;;;;;;;1.77;0.85;;;;;;;;;;5020858;28;20283;-89
2023/03/13 13:12:19;;;;;;;3.28;1.23;;;;;;;;;;5015151;28;20040;-86
2023/03/13 13:14:48;;;;;;;7.10;1.05;;;;;;;;;;5029237;28;20038;-86
2023/03/13 13:17:39;;;;;;;2.13;0.90;;;;;;;;;;5011053;28;20076;-82
2023/03/13 13:20:29;;;;;;;2.65;1.23;;;;;;;;;;5010372;28;20355;-84
2023/03/13 13:22:56;;;;;;;2.85;1.10;;;;;;;;;;5009608;28;20022;-82
2023/03/13 13:25:33;;;;;;;2.33;0.98;;;;;;;;;;5008075;28;20386;-80
2023/03/13 13:28:15;;;;;;;4.63;1.15;;;;;;;;;;5024932;28;20026;-84
2023/03/13 13:30:40;;;;;;;2.55;0.98;;;;;;;;;;5024246;28;20635;-85
2023/03/13 13:33:29;;;;;;;2.28;0.90;;;;;;;;;;5012159;28;20036;-82
2023/03/13 13:36:25;;;;;;;2.28;0.80;;;;;;;;;;5012078;28;20041;-81
2023/03/13 13:38:52;;;;;;;3.10;1.15;;;;;;;;;;5012183;28;20473;-84
2023/03/13 13:41:18;;;;;;;1.48;1.00;;;;;;;;;;5009035;28;20080;-84
2023/03/13 13:43:46;;;;;;;1.85;1.10;;;;;;;;;;5008580;28;20022;-83
2023/03/13 13:46:28;;;;;;;2.72;0.82;;;;;;;;;;5010137;28;20632;-82
2023/03/13 13:49:09;;;;;;;2.08;1.02;;;;;;;;;;5011594;28;20026;-83
2023/03/13 13:51:39;;;;;;;10.55;1.50;;;;;;;;;;5008813;28;20101;-82
2023/03/13 13:54:11;;;;;;;2.67;1.02;;;;;;;;;;5012151;28;20026;-84
2023/03/13 13:56:44;;;;;;;2.00;1.00;;;;;;;;;;5008653;28;20022;-82
2023/03/13 13:59:26;;;;;;;3.08;1.17;;;;;;;;;;4995409;28;20026;-85
2023/03/13 14:02:07;;;;;;;3.55;1.10;;;;;;;;;;5012769;28;20022;-84
2023/03/13 14:04:37;;;;;;;4.10;1.58;;;;;;;;;;5011988;28;20037;-87
2023/03/13 14:07:11;;;;;;;2.67;1.17;;;;;;;;;;5011832;28;20029;-84
2023/03/13 14:09:53;;;;;;;3.78;0.85;;;;;;;;;;5027297;28;20053;-82
2023/03/13 14:13:00;;;;;;;6.65;1.38;;;;;;;;;;5012684;28;20044;-83
2023/03/13 14:15:35;;;;;;;1.90;1.45;;;;;;;;;;5014128;28;20399;-85
2023/03/13 14:18:19;;;;;;;4.45;1.30;;;;;;;;;;5013834;28;20029;-86
2023/03/13 14:20:55;;;;;;;1.92;1.13;;;;;;;;;;5010130;28;20155;-81
2023/03/13 14:23:43;;;;;;;2.75;0.80;;;;;;;;;;5010008;28;20083;-82
2023/03/13 14:26:11;;;;;;;1.23;1.10;;;;;;;;;;5015467;28;20108;-84
2023/03/13 14:28:42;;;;;;;1.92;1.30;;;;;;;;;;5016397;28;20082;-80
2023/03/13 14:31:10;;;;;;;5.53;1.60;;;;;;;;;;5011631;28;20030;-84
2023/03/13 14:33:39;;;;;;;3.40;1.15;;;;;;;;;;5012289;28;20096;-81
2023/03/13 14:36:05;;;;;;;4.55;1.35;;;;;;;;;;5012440;28;20087;-85
2023/03/13 14:38:32;;;;;;;2.83;1.15;;;;;;;;;;5015372;28;20034;-87
2023/03/13 14:41:01;;;;;;;3.17;1.40;;;;;;;;;;5014613;28;20407;-85
2023/03/13 14:43:34;;;;;;;4.22;1.85;;;;;;;;;;5013657;28;20390;-84
2023/03/13 14:46:26;;;;;;;3.08;1.30;;;;;;;;;;5010957;28;20034;-84
2023/03/13 14:48:56;;;;;;;1.88;1.00;;;;;;;;;;5013063;28;20038;-86
2023/03/13 14:51:26;;;;;;;2.92;0.90;;;;;;;;;;5012096;28;20493;-83
2023/03/13 14:54:01;;;;;;;1.90;1.13;;;;;;;;;;5013964;28;20033;-85
2023/03/13 14:56:36;;;;;;;2.80;1.00;;;;;;;;;;5015011;28;20290;-83
2023/03/13 14:59:18;;;;;;;2.10;1.15;;;;;;;;;;5010842;28;20018;-83
2023/03/13 15:02:12;;;;;;;1.88;1.20;;;;;;;;;;5013334;28;20025;-86
2023/03/13 15:05:01;;;;;;;2.13;1.08;;;;;;;;;;5014993;28;20037;-85
2023/03/13 15:07:46;;;;;;;12.48;1.83;;;;;;;;;;5014158;28;20034;-87